map of GXQ home
GXQ - Airport
Location
City:  Coyhaique, Aysén del General Carlos Ibáñez del Campo, Chile
Name:Teniente Vidal Airport
ICAO:SCCY
IATA:GXQ

Details
Type:Airport (Aerodrome, Airfield)
Use:Public/Civil
Latitude:45°35'37"S (-45.593610)
Longitude:72°06'19"W (-72.105277)
Elevation:1020 ft (311 m)
Variation:9.95°E (WMM2015 magnetic declination)
-0.10° annual change
Runways:1
Longest:5072 × 98 ft (1546 × 30 m), paved

Time
Time Zone:UTC-4 (DST-3)
Local Time:

Weather
METAR:SCCY 191300Z 25009G19KT 9999 -SHRA SCT030 BKN040 14/09 Q1000
TAF:SCCY 191022Z 1912/1924 04015KT 7000 -RA BKN030 BKN040 TN12/1912Z TX17/1919Z TEMP 1912/1915 34015G25KT
BECMG 1919/1921 32018KT 5000 RA SCT010 BKN020

Related Locations
Nearby:
Farthest:MXW: 12361 mi / 19892 km
Mandalgovi (Mandalgobi) [Mandalgovi Airport], 059, MN

Find:

   beyond  
but within

Other Information
Maps:
NOTAMs:
Links:
Sources:

  
  • flag of Chile
  • flag of Aysén del General Carlos Ibáñez del Campo
  

Sectional Chart

Flight Planning
at skyvector.com

Satellite Image

Google Maps Satellite view

 

Copyright © 2004-2018 Karl L. Swartz. All rights reserved.
The Great Circle Mapper name and logo are trademarks of the Great Circle Mapper.
All other trademarks mentioned herein belong to their respective owners.
Please see credits for attibutions and further copyright information.

  Follow gcmap on Facebook Follow gcmap on Twitter Follow gcmap on Google+ GCmap on LinkedIn

hCard Microformat

Geo Microformat